METAR Data
IDs: Format: Raw Decoded Include TAF

Data at: 2155 UTC 10 May 2021

KBDU 102135Z AUTO 34013G18KT 7SM RA OVC013 04/03 A3003 RMK AO2 P0001
KBDU 102115Z AUTO 34012KT 10SM -RA OVC011 04/03 A3003 RMK AO2
KBDU 102055Z AUTO 34014G19KT 10SM BKN009 OVC023 05/03 A3003 RMK AO2 LTG DSNT NW
KBDU 102035Z AUTO 35012G15KT 10SM SCT011 SCT018 OVC023 05/04 A3003 RMK AO2 LTG DSNT NW
KBDU 102015Z AUTO 36011KT 10SM SCT013 OVC023 06/04 A3003 RMK AO2
KBDU 101955Z AUTO 36011KT 10SM SCT014 OVC019 06/04 A3001 RMK AO2
KBDU 101935Z AUTO 02009KT 10SM -DZ BKN013 BKN021 OVC031 06/05 A3002 RMK AO2
KBDU 101915Z AUTO 02006KT 10SM SCT013 BKN023 OVC045 07/04 A3003 RMK AO2
KBDU 101855Z AUTO 36005KT 10SM OVC021 07/04 A3003 RMK AO2
KBDU 101835Z AUTO 03004KT 10SM -DZ SCT013 OVC019 06/04 A3003 RMK AO2
KBDU 101815Z AUTO 05004KT 10SM SCT013 BKN019 OVC024 06/04 A3003 RMK AO2
KBDU 101755Z AUTO 00000KT 10SM -DZ SCT012 BKN019 OVC026 06/04 A3003 RMK AO2 LTG DSNT NW
KBDU 101735Z AUTO 06003KT 10SM SCT010 OVC019 06/04 A3003 RMK AO2
KBDU 101715Z AUTO 03004KT 10SM -RA BKN011 OVC021 06/04 A3003 RMK AO2
KBDU 101655Z AUTO 00000KT 10SM -DZ BKN011 BKN019 OVC024 06/04 A3003 RMK AO2
KBDU 101635Z AUTO 00000KT 10SM -DZ SCT010 OVC017 05/03 A3004 RMK AO2
KBDU 101615Z AUTO 00000KT 10SM -DZ OVC015 05/03 A3004 RMK AO2
KBDU 101555Z AUTO 01003KT 10SM -RA BKN013 OVC019 05/03 A3004 RMK AO2 P0002
KBDU 101535Z AUTO 01003KT 10SM RA SCT011 OVC019 05/03 A3005 RMK AO2 P0002
KBDU 101515Z AUTO 02004KT 7SM -RA BKN013 OVC019 05/03 A3005 RMK AO2 P0002
KBDU 101455Z AUTO 01005KT 7SM RA OVC011 04/03 A3006 RMK AO2 P0001
KBDU 101435Z AUTO 02006KT 10SM -RA OVC011 05/03 A3005 RMK AO2
KBDU 101415Z AUTO 01007KT 10SM -RA OVC011 04/03 A3005 RMK AO2
KBDU 101355Z AUTO 01007KT 10SM DZ OVC009 04/03 A3005 RMK AO2
KBDU 101335Z AUTO 01008KT 10SM -DZ OVC009 05/03 A3005 RMK AO2
KBDU 101315Z AUTO 01007KT 10SM -RA OVC011 05/03 A3005 RMK AO2
KBDU 101255Z AUTO 35005KT 10SM -DZ BKN009 OVC014 05/03 A3005 RMK AO2
KBDU 101235Z AUTO 33004KT 10SM DZ BKN009 OVC016 05/03 A3006 RMK AO2
KBDU 101215Z AUTO 36005KT 10SM DZ BKN016 OVC024 04/03 A3005 RMK AO2
KBDU 101155Z AUTO 36008KT 10SM BKN016 OVC022 04/03 A3005 RMK AO2
KBDU 101135Z AUTO 01006KT 10SM -DZ SCT007 OVC022 04/04 A3005 RMK AO2
KBDU 101115Z AUTO 36004KT 10SM -DZ BKN009 BKN019 OVC025 04/03 A3005 RMK AO2
KBDU 101055Z AUTO 36004KT 10SM DZ SCT009 BKN025 OVC032 04/03 A3006 RMK AO2
KBDU 101035Z AUTO 03006KT 10SM -RA OVC025 05/03 A3006 RMK AO2
KBDU 101015Z AUTO 36006KT 10SM DZ BKN027 OVC033 05/03 A3006 RMK AO2
KBDU 100955Z AUTO 36007KT 10SM -DZ BKN024 OVC031 05/04 A3006 RMK AO2
KBDU 100935Z AUTO 01009KT 10SM SCT009 SCT016 OVC024 05/05 A3006 RMK AO2
KBDU 100915Z AUTO 03006KT 10SM -DZ SCT016 BKN024 OVC041 06/05 A3006 RMK AO2
KBDU 100855Z AUTO 02004KT 10SM DZ SCT007 OVC024 06/06 A3006 RMK AO2
KBDU 100835Z AUTO 02003KT 10SM DZ SCT006 BKN022 OVC028 06/06 A3006 RMK AO2
KBDU 100815Z AUTO 02003KT 10SM DZ SCT006 SCT022 OVC028 06/06 A3007 RMK AO2
KBDU 100755Z AUTO 01004KT 10SM DZ SCT007 BKN028 OVC055 06/06 A3007 RMK AO2 P0001
KBDU 100735Z AUTO 05003KT 10SM -RA SCT007 BKN028 OVC055 06/06 A3008 RMK AO2 P0001
KBDU 100715Z AUTO 00000KT 10SM -RA OVC034 06/05 A3008 RMK AO2 LTG DSNT S
KBDU 100655Z AUTO 36003KT 10SM -DZ SCT036 BKN044 OVC050 06/05 A3008 RMK AO2 LTG DSNT S
KBDU 100635Z AUTO 00000KT 10SM DZ SCT036 BKN046 OVC050 06/05 A3008 RMK AO2
KBDU 100615Z AUTO 00000KT 10SM UP SCT034 BKN050 OVC070 06/05 A3008 RMK AO2
KBDU 100555Z AUTO 00000KT 10SM SCT070 OVC090 06/05 A3008 RMK AO2
KBDU 100535Z AUTO 00000KT 10SM OVC090 06/04 A3007 RMK AO2
KBDU 100515Z AUTO 00000KT 10SM SCT090 06/04 A3008 RMK AO2
KBDU 100455Z AUTO 22003KT 10SM SCT080 SCT090 BKN120 07/05 A3008 RMK AO2
KBDU 100435Z AUTO 00000KT 10SM BKN080 BKN090 OVC120 07/05 A3008 RMK AO2
KBDU 100415Z AUTO 21003KT 10SM SCT070 OVC080 07/04 A3009 RMK AO2
KBDU 100355Z AUTO 21004KT 10SM -DZ SCT043 SCT060 OVC080 06/05 A3008 RMK AO2
KBDU 100335Z AUTO 23003KT 10SM -RA BKN043 BKN050 OVC065 06/05 A3008 RMK AO2
KBDU 100315Z AUTO 23003KT 10SM SCT043 BKN050 OVC070 06/05 A3008 RMK AO2
KBDU 100255Z AUTO 23004KT 10SM -DZ SCT032 BKN044 OVC070 07/05 A3008 RMK AO2 P0001
KBDU 100235Z AUTO 00000KT 10SM RA SCT030 BKN035 OVC044 07/05 A3007 RMK AO2 P0001
KBDU 100215Z AUTO 00000KT 10SM RA BKN024 OVC033 07/05 A3007 RMK AO2 P0001
KBDU 100155Z AUTO 00000KT 7SM RA OVC024 07/04 A3007 RMK AO2 P0004
KBDU 100135Z AUTO 21003KT 5SM RA SCT017 BKN024 OVC029 07/04 A3007 RMK AO2 P0001
KBDU 100115Z AUTO 15005KT 10SM -RA OVC031 07/03 A3006 RMK AO2
KBDU 100055Z AUTO 16005KT 10SM DZ OVC031 08/02 A3006 RMK AO2
KBDU 100035Z AUTO 16005KT 10SM BKN029 BKN039 OVC045 08/01 A3005 RMK AO2
KBDU 100015Z AUTO 16005KT 10SM SCT029 BKN038 OVC043 08/02 A3004 RMK AO2
KBDU 092355Z AUTO 12007KT 10SM BKN033 OVC039 08/02 A3004 RMK AO2
KBDU 092335Z AUTO 11008KT 10SM OVC034 08/02 A3004 RMK AO2
KBDU 092315Z AUTO 11008KT 10SM OVC034 08/00 A3004 RMK AO2
KBDU 092255Z AUTO 12006KT 10SM OVC034 08/00 A3003 RMK AO2
KBDU 092235Z AUTO 13008KT 10SM OVC034 08/01 A3003 RMK AO2
KBDU 092215Z AUTO 13007KT 10SM OVC034 08/01 A3003 RMK AO2
KBDU 092155Z AUTO 11008KT 10SM OVC032 09/01 A3003 RMK AO2
KBDU 092135Z AUTO 13007KT 10SM OVC035 09/01 A3004 RMK AO2
KBDU 092115Z AUTO 13011KT 10SM BKN036 BKN050 10/01 A3003 RMK AO2
KBDU 092055Z AUTO 12007G15KT 082V142 10SM SCT035 BKN050 10/00 A3003 RMK AO2
KBDU 092035Z AUTO 12008G17KT 102V162 10SM SCT035 SCT050 BKN100 10/00 A3004 RMK AO2
KBDU 092015Z AUTO 14009G14KT 10SM SCT035 SCT040 BKN100 10/00 A3003 RMK AO2
KBDU 091955Z AUTO 15010G16KT 10SM SCT037 BKN045 10/00 A3004 RMK AO2
KBDU 091935Z AUTO 13008KT 102V162 10SM BKN045 BKN120 10/00 A3005 RMK AO2
KBDU 091915Z AUTO 14009G14KT 10SM BKN045 BKN050 BKN120 10/00 A3005 RMK AO2
KBDU 091855Z AUTO 17007KT 10SM SCT047 BKN120 10/M01 A3005 RMK AO2
KBDU 091835Z AUTO 13004KT 10SM SCT045 SCT120 10/M01 A3006 RMK AO2
KBDU 091815Z AUTO 15006KT 10SM SCT045 SCT110 10/M01 A3007 RMK AO2
KBDU 091755Z AUTO 13006KT 10SM SCT045 SCT110 10/M02 A3007 RMK AO2
KBDU 091735Z AUTO 16005KT 10SM SCT120 10/M02 A3007 RMK AO2
KBDU 091715Z AUTO 15008KT 10SM CLR 09/M02 A3008 RMK AO2
KBDU 091655Z AUTO 09005KT 10SM CLR 09/M02 A3008 RMK AO2
KBDU 091635Z AUTO 14003KT 10SM SCT043 08/M03 A3008 RMK AO2
KBDU 091615Z AUTO 14005KT 10SM BKN045 08/M02 A3010 RMK AO2
KBDU 091555Z AUTO 13004KT 10SM BKN045 08/M01 A3010 RMK AO2
KBDU 091535Z AUTO 11009KT 10SM CLR 07/M02 A3010 RMK AO2
KBDU 091515Z AUTO 13007KT 10SM SCT027 07/00 A3010 RMK AO2
KBDU 091455Z AUTO 15008KT 132V192 10SM SCT027 07/00 A3010 RMK AO2
KBDU 091435Z AUTO 15004KT 10SM CLR 06/01 A3010 RMK AO2
KBDU 091415Z AUTO 14004KT 10SM SCT041 05/02 A3010 RMK AO2
KBDU 091355Z AUTO 00000KT 10SM OVC041 05/02 A3011 RMK AO2
KBDU 091335Z AUTO 19004KT 10SM OVC041 05/02 A3011 RMK AO2
KBDU 091315Z AUTO 19004KT 10SM OVC041 04/02 A3010 RMK AO2
KBDU 091255Z AUTO 18006KT 10SM OVC041 04/02 A3010 RMK AO2
KBDU 091235Z AUTO 19004KT 10SM OVC041 04/02 A3009 RMK AO2
KBDU 091215Z AUTO 19003KT 10SM SCT026 OVC041 04/02 A3009 RMK AO2
KBDU 091155Z AUTO 20003KT 10SM BKN022 OVC030 04/02 A3009 RMK AO2
KBDU 091135Z AUTO 15003KT 10SM BKN022 OVC037 04/02 A3009 RMK AO2
KBDU 091115Z AUTO 00000KT 10SM SCT022 OVC033 04/01 A3009 RMK AO2
KBDU 091055Z AUTO 00000KT 10SM OVC031 04/02 A3008 RMK AO2
KBDU 091035Z AUTO 00000KT 10SM OVC029 03/02 A3007 RMK AO2
KBDU 091015Z AUTO 00000KT 10SM OVC029 03/02 A3008 RMK AO2